sensor_id;sensor_type;location;lat;lon;timestamp;pressure;altitude;pressure_sealevel;temperature;humidity
43707;BME280;61348;53.392;-6.248;2023-12-04T00:00:04;99565.31;;;3.83;97.72
43707;BME280;61348;53.392;-6.248;2023-12-04T00:02:32;99562.22;;;3.84;97.79
43707;BME280;61348;53.392;-6.248;2023-12-04T00:04:59;99564.31;;;3.87;97.89
43707;BME280;61348;53.392;-6.248;2023-12-04T00:07:27;99558.53;;;3.89;97.54
43707;BME280;61348;53.392;-6.248;2023-12-04T00:09:54;99554.97;;;3.88;97.67
43707;BME280;61348;53.392;-6.248;2023-12-04T00:12:21;99553.84;;;3.89;97.37
43707;BME280;61348;53.392;-6.248;2023-12-04T00:14:49;99546.13;;;3.91;97.74
43707;BME280;61348;53.392;-6.248;2023-12-04T00:17:17;99542.22;;;3.92;97.50
43707;BME280;61348;53.392;-6.248;2023-12-04T00:19:44;99546.56;;;3.93;97.53
43707;BME280;61348;53.392;-6.248;2023-12-04T00:22:11;99532.88;;;3.93;97.62
43707;BME280;61348;53.392;-6.248;2023-12-04T00:24:38;99531.28;;;3.92;97.66
43707;BME280;61348;53.392;-6.248;2023-12-04T00:27:06;99536.44;;;3.94;97.70
43707;BME280;61348;53.392;-6.248;2023-12-04T00:29:33;99531.41;;;3.96;97.34
43707;BME280;61348;53.392;-6.248;2023-12-04T00:32:00;99529.03;;;3.94;97.55
43707;BME280;61348;53.392;-6.248;2023-12-04T00:34:29;99525.94;;;3.96;97.44
43707;BME280;61348;53.392;-6.248;2023-12-04T00:36:56;99523.22;;;3.96;97.57
43707;BME280;61348;53.392;-6.248;2023-12-04T00:39:24;99517.38;;;3.97;97.40
43707;BME280;61348;53.392;-6.248;2023-12-04T00:41:51;99509.97;;;3.98;97.40
43707;BME280;61348;53.392;-6.248;2023-12-04T00:44:18;99504.19;;;3.99;97.28
43707;BME280;61348;53.392;-6.248;2023-12-04T00:46:46;99501.09;;;4.01;97.54
43707;BME280;61348;53.392;-6.248;2023-12-04T00:49:13;99506.28;;;4.02;97.53
43707;BME280;61348;53.392;-6.248;2023-12-04T00:51:41;99502.72;;;4.02;97.30
43707;BME280;61348;53.392;-6.248;2023-12-04T00:54:08;99503.19;;;4.04;97.35
43707;BME280;61348;53.392;-6.248;2023-12-04T00:56:38;99499.19;;;4.01;97.44
43707;BME280;61348;53.392;-6.248;2023-12-04T00:59:08;99490.16;;;4.01;97.25
43707;BME280;61348;53.392;-6.248;2023-12-04T01:01:36;99491.28;;;4.00;97.28
43707;BME280;61348;53.392;-6.248;2023-12-04T01:04:05;99493.22;;;3.99;97.18
43707;BME280;61348;53.392;-6.248;2023-12-04T01:06:32;99487.75;;;3.99;97.37
43707;BME280;61348;53.392;-6.248;2023-12-04T01:09:00;99494.00;;;4.00;97.18
43707;BME280;61348;53.392;-6.248;2023-12-04T01:11:27;99489.34;;;4.00;97.26
43707;BME280;61348;53.392;-6.248;2023-12-04T01:13:55;99474.53;;;4.01;97.44
43707;BME280;61348;53.392;-6.248;2023-12-04T01:16:22;99474.53;;;4.01;97.49
43707;BME280;61348;53.392;-6.248;2023-12-04T01:18:49;99469.84;;;4.02;97.34
43707;BME280;61348;53.392;-6.248;2023-12-04T01:21:17;99473.72;;;4.01;97.08
43707;BME280;61348;53.392;-6.248;2023-12-04T01:23:44;99479.53;;;3.99;97.17
43707;BME280;61348;53.392;-6.248;2023-12-04T01:26:11;99479.53;;;3.99;97.21
43707;BME280;61348;53.392;-6.248;2023-12-04T01:28:39;99464.25;;;3.98;96.69
43707;BME280;61348;53.392;-6.248;2023-12-04T01:31:07;99466.16;;;3.98;97.04
43707;BME280;61348;53.392;-6.248;2023-12-04T01:33:34;99454.91;;;3.99;96.89
43707;BME280;61348;53.392;-6.248;2023-12-04T01:36:02;99456.03;;;3.98;96.67
43707;BME280;61348;53.392;-6.248;2023-12-04T01:38:31;99453.28;;;3.98;96.60
43707;BME280;61348;53.392;-6.248;2023-12-04T01:40:58;99441.22;;;3.99;96.41
43707;BME280;61348;53.392;-6.248;2023-12-04T01:43:25;99453.44;;;4.02;96.67
43707;BME280;61348;53.392;-6.248;2023-12-04T01:45:53;99441.66;;;4.01;96.92
43707;BME280;61348;53.392;-6.248;2023-12-04T01:48:21;99461.31;;;4.03;96.66
43707;BME280;61348;53.392;-6.248;2023-12-04T01:50:49;99444.56;;;4.05;96.58
43707;BME280;61348;53.392;-6.248;2023-12-04T01:53:17;99445.81;;;4.07;96.53
43707;BME280;61348;53.392;-6.248;2023-12-04T01:55:45;99452.56;;;4.10;96.45
43707;BME280;61348;53.392;-6.248;2023-12-04T01:58:13;99441.63;;;4.10;96.71
43707;BME280;61348;53.392;-6.248;2023-12-04T02:00:41;99442.38;;;4.10;96.78
43707;BME280;61348;53.392;-6.248;2023-12-04T02:03:09;99439.66;;;4.10;96.87
43707;BME280;61348;53.392;-6.248;2023-12-04T02:05:37;99435.78;;;4.11;97.01
43707;BME280;61348;53.392;-6.248;2023-12-04T02:08:05;99439.00;;;4.13;96.99
43707;BME280;61348;53.392;-6.248;2023-12-04T02:10:32;99440.94;;;4.13;97.03
43707;BME280;61348;53.392;-6.248;2023-12-04T02:13:00;99435.78;;;4.11;97.10
43707;BME280;61348;53.392;-6.248;2023-12-04T02:15:27;99436.91;;;4.10;97.19
43707;BME280;61348;53.392;-6.248;2023-12-04T02:17:54;99436.91;;;4.10;97.23
43707;BME280;61348;53.392;-6.248;2023-12-04T02:20:33;99433.41;;;4.10;97.00
43707;BME280;61348;53.392;-6.248;2023-12-04T02:23:01;99440.00;;;4.09;97.11
43707;BME280;61348;53.392;-6.248;2023-12-04T02:25:30;99436.13;;;4.10;97.50
43707;BME280;61348;53.392;-6.248;2023-12-04T02:28:06;99439.66;;;4.10;97.38
43707;BME280;61348;53.392;-6.248;2023-12-04T02:30:36;99443.69;;;4.13;97.29
43707;BME280;61348;53.392;-6.248;2023-12-04T02:33:06;99440.59;;;4.14;97.28
43707;BME280;61348;53.392;-6.248;2023-12-04T02:35:35;99431.94;;;4.12;97.58
43707;BME280;61348;53.392;-6.248;2023-12-04T02:38:03;99441.41;;;4.15;97.44
43707;BME280;61348;53.392;-6.248;2023-12-04T02:40:31;99442.22;;;4.15;97.35
43707;BME280;61348;53.392;-6.248;2023-12-04T02:42:59;99437.06;;;4.14;97.33
43707;BME280;61348;53.392;-6.248;2023-12-04T02:45:26;99442.22;;;4.15;97.04
43707;BME280;61348;53.392;-6.248;2023-12-04T02:47:53;99442.22;;;4.15;97.17
43707;BME280;61348;53.392;-6.248;2023-12-04T02:50:22;99430.00;;;4.13;97.04
43707;BME280;61348;53.392;-6.248;2023-12-04T02:52:49;99428.03;;;4.13;97.08
43707;BME280;61348;53.392;-6.248;2023-12-04T02:55:16;99437.06;;;4.14;97.18
43707;BME280;61348;53.392;-6.248;2023-12-04T02:57:45;99420.97;;;4.12;97.25
43707;BME280;61348;53.392;-6.248;2023-12-04T03:00:12;99427.25;;;4.13;96.65
43707;BME280;61348;53.392;-6.248;2023-12-04T03:02:53;99419.34;;;4.11;96.78
43707;BME280;61348;53.392;-6.248;2023-12-04T03:05:22;99418.56;;;4.11;96.76
43707;BME280;61348;53.392;-6.248;2023-12-04T03:07:49;99424.38;;;4.09;97.02
43707;BME280;61348;53.392;-6.248;2023-12-04T03:10:17;99422.75;;;4.08;96.83
43707;BME280;61348;53.392;-6.248;2023-12-04T03:12:44;99421.19;;;4.07;96.66
43707;BME280;61348;53.392;-6.248;2023-12-04T03:15:11;99424.22;;;4.06;97.04
43707;BME280;61348;53.392;-6.248;2023-12-04T03:17:40;99424.56;;;4.04;96.85
43707;BME280;61348;53.392;-6.248;2023-12-04T03:20:08;99432.78;;;4.04;97.31
43707;BME280;61348;53.392;-6.248;2023-12-04T03:22:38;99424.91;;;4.03;96.89
43707;BME280;61348;53.392;-6.248;2023-12-04T03:25:06;99415.91;;;4.02;96.93
43707;BME280;61348;53.392;-6.248;2023-12-04T03:27:34;99429.91;;;4.01;97.08
43707;BME280;61348;53.392;-6.248;2023-12-04T03:30:01;99433.78;;;4.00;97.24
43707;BME280;61348;53.392;-6.248;2023-12-04T03:32:29;99418.50;;;3.99;97.28
43707;BME280;61348;53.392;-6.248;2023-12-04T03:34:57;99423.50;;;3.97;97.04
43707;BME280;61348;53.392;-6.248;2023-12-04T03:37:24;99427.38;;;3.96;97.05
43707;BME280;61348;53.392;-6.248;2023-12-04T03:39:52;99413.69;;;3.96;96.96
43707;BME280;61348;53.392;-6.248;2023-12-04T03:42:19;99419.50;;;3.94;97.14
43707;BME280;61348;53.392;-6.248;2023-12-04T03:44:46;99410.13;;;3.95;97.59
43707;BME280;61348;53.392;-6.248;2023-12-04T03:47:14;99416.78;;;3.94;97.12
43707;BME280;61348;53.392;-6.248;2023-12-04T03:49:41;99426.56;;;3.95;97.25
43707;BME280;61348;53.392;-6.248;2023-12-04T03:52:08;99417.53;;;3.95;97.57
43707;BME280;61348;53.392;-6.248;2023-12-04T03:54:36;99404.66;;;3.95;97.23
43707;BME280;61348;53.392;-6.248;2023-12-04T03:57:03;99408.56;;;3.94;97.42
43707;BME280;61348;53.392;-6.248;2023-12-04T03:59:31;99409.69;;;3.93;97.50
43707;BME280;61348;53.392;-6.248;2023-12-04T04:01:58;99417.09;;;3.93;97.19
43707;BME280;61348;53.392;-6.248;2023-12-04T04:04:26;99406.13;;;3.93;97.31
43707;BME280;61348;53.392;-6.248;2023-12-04T04:06:53;99402.94;;;3.91;97.10
43707;BME280;61348;53.392;-6.248;2023-12-04T04:09:21;99398.94;;;3.88;97.36
43707;BME280;61348;53.392;-6.248;2023-12-04T04:11:49;99389.09;;;3.87;97.37
43707;BME280;61348;53.392;-6.248;2023-12-04T04:14:16;99393.44;;;3.88;97.39
43707;BME280;61348;53.392;-6.248;2023-12-04T04:16:44;99390.38;;;3.90;97.04
43707;BME280;61348;53.392;-6.248;2023-12-04T04:19:11;99387.97;;;3.88;96.96
43707;BME280;61348;53.392;-6.248;2023-12-04T04:21:40;99387.16;;;3.88;96.98
43707;BME280;61348;53.392;-6.248;2023-12-04T04:24:08;99391.84;;;3.87;96.98
43707;BME280;61348;53.392;-6.248;2023-12-04T04:26:35;99387.50;;;3.86;96.99
43707;BME280;61348;53.392;-6.248;2023-12-04T04:29:03;99387.84;;;3.85;97.12
43707;BME280;61348;53.392;-6.248;2023-12-04T04:31:30;99376.41;;;3.83;96.77
43707;BME280;61348;53.392;-6.248;2023-12-04T04:33:58;99389.31;;;3.82;96.86
43707;BME280;61348;53.392;-6.248;2023-12-04T04:36:25;99391.22;;;3.82;96.73
43707;BME280;61348;53.392;-6.248;2023-12-04T04:38:52;99389.31;;;3.82;97.09
43707;BME280;61348;53.392;-6.248;2023-12-04T04:41:20;99402.19;;;3.82;96.73
43707;BME280;61348;53.392;-6.248;2023-12-04T04:43:47;99396.25;;;3.80;96.67
43707;BME280;61348;53.392;-6.248;2023-12-04T04:46:14;99387.44;;;3.74;96.48
43707;BME280;61348;53.392;-6.248;2023-12-04T04:48:42;99393.09;;;3.69;96.69
43707;BME280;61348;53.392;-6.248;2023-12-04T04:51:09;99404.59;;;3.62;96.15
43707;BME280;61348;53.392;-6.248;2023-12-04T04:53:38;99389.94;;;3.58;96.47
43707;BME280;61348;53.392;-6.248;2023-12-04T04:56:05;99402.38;;;3.56;96.38
43707;BME280;61348;53.392;-6.248;2023-12-04T04:58:33;99403.69;;;3.50;96.22
43707;BME280;61348;53.392;-6.248;2023-12-04T05:01:00;99403.41;;;3.43;96.40
43707;BME280;61348;53.392;-6.248;2023-12-04T05:03:28;99408.72;;;3.39;96.63
43707;BME280;61348;53.392;-6.248;2023-12-04T05:05:55;99407.47;;;3.37;96.51
43707;BME280;61348;53.392;-6.248;2023-12-04T05:08:23;99401.88;;;3.33;96.53
43707;BME280;61348;53.392;-6.248;2023-12-04T05:10:50;99402.06;;;3.28;96.53
43707;BME280;61348;53.392;-6.248;2023-12-04T05:13:17;99397.25;;;3.25;96.19
43707;BME280;61348;53.392;-6.248;2023-12-04T05:15:45;99394.34;;;3.22;96.14
43707;BME280;61348;53.392;-6.248;2023-12-04T05:18:12;99396.28;;;3.21;96.26
43707;BME280;61348;53.392;-6.248;2023-12-04T05:20:39;99395.00;;;3.19;96.40
43707;BME280;61348;53.392;-6.248;2023-12-04T05:23:07;99393.72;;;3.16;96.12
43707;BME280;61348;53.392;-6.248;2023-12-04T05:25:34;99391.34;;;3.15;96.21
43707;BME280;61348;53.392;-6.248;2023-12-04T05:28:11;99402.28;;;3.15;96.04
43707;BME280;61348;53.392;-6.248;2023-12-04T05:30:38;99397.47;;;3.12;95.99
43707;BME280;61348;53.392;-6.248;2023-12-04T05:33:05;99390.72;;;3.09;95.96
43707;BME280;61348;53.392;-6.248;2023-12-04T05:35:33;99394.25;;;3.10;95.96
43707;BME280;61348;53.392;-6.248;2023-12-04T05:38:02;99388.78;;;3.10;96.44
43707;BME280;61348;53.392;-6.248;2023-12-04T05:40:31;99393.75;;;3.07;96.44
43707;BME280;61348;53.392;-6.248;2023-12-04T05:42:58;99401.19;;;3.07;96.06
43707;BME280;61348;53.392;-6.248;2023-12-04T05:45:26;99399.56;;;3.06;96.13
43707;BME280;61348;53.392;-6.248;2023-12-04T05:47:55;99410.81;;;3.04;96.17
43707;BME280;61348;53.392;-6.248;2023-12-04T05:50:22;99411.16;;;3.03;96.06
43707;BME280;61348;53.392;-6.248;2023-12-04T05:52:50;99412.44;;;3.05;96.42
43707;BME280;61348;53.392;-6.248;2023-12-04T05:55:18;99412.91;;;3.07;96.08
43707;BME280;61348;53.392;-6.248;2023-12-04T05:57:45;99401.97;;;3.07;96.07
43707;BME280;61348;53.392;-6.248;2023-12-04T06:00:13;99414.53;;;3.08;96.26
43707;BME280;61348;53.392;-6.248;2023-12-04T06:02:43;99418.38;;;3.07;96.33
43707;BME280;61348;53.392;-6.248;2023-12-04T06:05:11;99424.66;;;3.08;96.03
43707;BME280;61348;53.392;-6.248;2023-12-04T06:07:38;99421.91;;;3.08;96.11
43707;BME280;61348;53.392;-6.248;2023-12-04T06:10:06;99410.50;;;3.06;95.97
43707;BME280;61348;53.392;-6.248;2023-12-04T06:12:34;99422.25;;;3.06;96.01
43707;BME280;61348;53.392;-6.248;2023-12-04T06:15:02;99420.63;;;3.05;96.08
43707;BME280;61348;53.392;-6.248;2023-12-04T06:17:29;99417.44;;;3.03;96.46
43707;BME280;61348;53.392;-6.248;2023-12-04T06:19:56;99418.09;;;3.00;96.12
43707;BME280;61348;53.392;-6.248;2023-12-04T06:22:24;99418.75;;;2.97;96.13
43707;BME280;61348;53.392;-6.248;2023-12-04T06:24:52;99419.88;;;2.96;96.11
43707;BME280;61348;53.392;-6.248;2023-12-04T06:27:20;99417.94;;;2.97;96.05
43707;BME280;61348;53.392;-6.248;2023-12-04T06:29:48;99423.72;;;2.95;96.36
43707;BME280;61348;53.392;-6.248;2023-12-04T06:32:19;99428.09;;;2.96;96.30
43707;BME280;61348;53.392;-6.248;2023-12-04T06:34:47;99435.78;;;2.94;96.16
43707;BME280;61348;53.392;-6.248;2023-12-04T06:37:15;99436.59;;;2.95;96.24
43707;BME280;61348;53.392;-6.248;2023-12-04T06:39:44;99427.28;;;2.96;96.59
43707;BME280;61348;53.392;-6.248;2023-12-04T06:42:12;99431.13;;;2.95;96.39
43707;BME280;61348;53.392;-6.248;2023-12-04T06:44:40;99435.78;;;2.94;96.37
43707;BME280;61348;53.392;-6.248;2023-12-04T06:47:08;99435.31;;;2.92;96.53
43707;BME280;61348;53.392;-6.248;2023-12-04T06:49:36;99436.44;;;2.91;96.70
43707;BME280;61348;53.392;-6.248;2023-12-04T06:52:04;99428.56;;;2.90;96.39
43707;BME280;61348;53.392;-6.248;2023-12-04T06:54:31;99433.22;;;2.89;96.75
43707;BME280;61348;53.392;-6.248;2023-12-04T06:56:59;99423.44;;;2.88;96.41
43707;BME280;61348;53.392;-6.248;2023-12-04T06:59:26;99431.66;;;2.88;96.29
43707;BME280;61348;53.392;-6.248;2023-12-04T07:01:54;99432.75;;;2.87;96.21
43707;BME280;61348;53.392;-6.248;2023-12-04T07:04:22;99438.56;;;2.86;96.54
43707;BME280;61348;53.392;-6.248;2023-12-04T07:06:49;99440.97;;;2.87;96.52
43707;BME280;61348;53.392;-6.248;2023-12-04T07:09:17;99440.16;;;2.87;96.82
43707;BME280;61348;53.392;-6.248;2023-12-04T07:11:44;99445.31;;;2.88;96.90
43707;BME280;61348;53.392;-6.248;2023-12-04T07:14:11;99437.13;;;2.88;96.75
43707;BME280;61348;53.392;-6.248;2023-12-04T07:16:42;99437.75;;;2.85;96.41
43707;BME280;61348;53.392;-6.248;2023-12-04T07:19:11;99447.06;;;2.84;96.43
43707;BME280;61348;53.392;-6.248;2023-12-04T07:21:38;99439.22;;;2.83;96.47
43707;BME280;61348;53.392;-6.248;2023-12-04T07:24:06;99444.34;;;2.84;96.54
43707;BME280;61348;53.392;-6.248;2023-12-04T07:26:34;99449.00;;;2.84;96.66
43707;BME280;61348;53.392;-6.248;2023-12-04T07:29:02;99449.00;;;2.84;96.67
43707;BME280;61348;53.392;-6.248;2023-12-04T07:31:30;99441.13;;;2.82;96.57
43707;BME280;61348;53.392;-6.248;2023-12-04T07:33:58;99455.94;;;2.81;96.73
43707;BME280;61348;53.392;-6.248;2023-12-04T07:36:28;99442.25;;;2.81;96.71
43707;BME280;61348;53.392;-6.248;2023-12-04T07:38:55;99455.13;;;2.81;96.70
43707;BME280;61348;53.392;-6.248;2023-12-04T07:41:23;99458.66;;;2.81;96.57
43707;BME280;61348;53.392;-6.248;2023-12-04T07:43:50;99458.66;;;2.81;96.70
43707;BME280;61348;53.392;-6.248;2023-12-04T07:46:18;99458.34;;;2.83;96.82
43707;BME280;61348;53.392;-6.248;2023-12-04T07:48:45;99461.09;;;2.83;96.96
43707;BME280;61348;53.392;-6.248;2023-12-04T07:51:14;99464.94;;;2.82;96.97
43707;BME280;61348;53.392;-6.248;2023-12-04T07:53:41;99466.84;;;2.81;96.76
43707;BME280;61348;53.392;-6.248;2023-12-04T07:56:09;99466.03;;;2.81;96.82
43707;BME280;61348;53.392;-6.248;2023-12-04T07:58:36;99469.44;;;2.78;96.83
43707;BME280;61348;53.392;-6.248;2023-12-04T08:01:04;99458.34;;;2.74;96.66
43707;BME280;61348;53.392;-6.248;2023-12-04T08:03:32;99468.31;;;2.70;96.76
43707;BME280;61348;53.392;-6.248;2023-12-04T08:06:00;99471.72;;;2.67;96.81
43707;BME280;61348;53.392;-6.248;2023-12-04T08:08:27;99478.63;;;2.65;97.12
43707;BME280;61348;53.392;-6.248;2023-12-04T08:10:55;99475.75;;;2.61;97.01
43707;BME280;61348;53.392;-6.248;2023-12-04T08:13:22;99479.59;;;2.60;97.13
43707;BME280;61348;53.392;-6.248;2023-12-04T08:15:49;99471.88;;;2.62;97.34
43707;BME280;61348;53.392;-6.248;2023-12-04T08:18:18;99474.59;;;2.62;97.07
43707;BME280;61348;53.392;-6.248;2023-12-04T08:20:45;99478.00;;;2.59;97.52
43707;BME280;61348;53.392;-6.248;2023-12-04T08:23:14;99486.19;;;2.59;97.78
43707;BME280;61348;53.392;-6.248;2023-12-04T08:25:42;99485.38;;;2.59;97.56
43707;BME280;61348;53.392;-6.248;2023-12-04T08:28:10;99491.16;;;2.57;97.33
43707;BME280;61348;53.392;-6.248;2023-12-04T08:30:38;99494.22;;;2.56;97.70
43707;BME280;61348;53.392;-6.248;2023-12-04T08:33:05;99491.81;;;2.54;97.78
43707;BME280;61348;53.392;-6.248;2023-12-04T08:35:34;99502.25;;;2.52;97.52
43707;BME280;61348;53.392;-6.248;2023-12-04T08:38:02;99500.97;;;2.50;97.89
43707;BME280;61348;53.392;-6.248;2023-12-04T08:40:29;99499.69;;;2.47;97.56
43707;BME280;61348;53.392;-6.248;2023-12-04T08:42:58;99500.03;;;2.45;97.69
43707;BME280;61348;53.392;-6.248;2023-12-04T08:45:25;99498.75;;;2.43;97.66
43707;BME280;61348;53.392;-6.248;2023-12-04T08:47:53;99505.31;;;2.42;97.88
43707;BME280;61348;53.392;-6.248;2023-12-04T08:50:20;99510.47;;;2.43;97.96
43707;BME280;61348;53.392;-6.248;2023-12-04T08:52:47;99507.41;;;2.45;98.22
43707;BME280;61348;53.392;-6.248;2023-12-04T08:55:15;99508.84;;;2.42;98.11
43707;BME280;61348;53.392;-6.248;2023-12-04T08:57:42;99506.75;;;2.39;97.79
43707;BME280;61348;53.392;-6.248;2023-12-04T09:00:10;99505.31;;;2.42;98.30
43707;BME280;61348;53.392;-6.248;2023-12-04T09:02:38;99507.56;;;2.40;98.01
43707;BME280;61348;53.392;-6.248;2023-12-04T09:05:16;99523.47;;;2.38;98.28
43707;BME280;61348;53.392;-6.248;2023-12-04T09:07:44;99506.13;;;2.34;98.11
43707;BME280;61348;53.392;-6.248;2023-12-04T09:10:14;99517.50;;;2.36;98.45
43707;BME280;61348;53.392;-6.248;2023-12-04T09:13:01;99511.75;;;2.37;98.02
43707;BME280;61348;53.392;-6.248;2023-12-04T09:15:29;99518.31;;;2.36;98.23
43707;BME280;61348;53.392;-6.248;2023-12-04T09:17:57;99511.28;;;2.35;98.54
43707;BME280;61348;53.392;-6.248;2023-12-04T09:20:24;99518.66;;;2.35;98.22
43707;BME280;61348;53.392;-6.248;2023-12-04T09:22:52;99522.19;;;2.35;98.41
43707;BME280;61348;53.392;-6.248;2023-12-04T09:25:30;99522.97;;;2.36;98.47
43707;BME280;61348;53.392;-6.248;2023-12-04T09:27:57;99525.41;;;2.37;98.57
43707;BME280;61348;53.392;-6.248;2023-12-04T09:30:25;99527.81;;;2.39;98.74
43707;BME280;61348;53.392;-6.248;2023-12-04T09:32:54;99526.69;;;2.40;98.49
43707;BME280;61348;53.392;-6.248;2023-12-04T09:35:21;99529.91;;;2.42;98.25
43707;BME280;61348;53.392;-6.248;2023-12-04T09:37:49;99519.78;;;2.42;98.75
43707;BME280;61348;53.392;-6.248;2023-12-04T09:40:17;99515.59;;;2.45;98.29
43707;BME280;61348;53.392;-6.248;2023-12-04T09:42:45;99514.31;;;2.42;98.64
43707;BME280;61348;53.392;-6.248;2023-12-04T09:45:13;99513.84;;;2.40;98.60
43707;BME280;61348;53.392;-6.248;2023-12-04T09:47:41;99522.34;;;2.39;98.31
43707;BME280;61348;53.392;-6.248;2023-12-04T09:50:10;99529.41;;;2.40;98.82
43707;BME280;61348;53.392;-6.248;2023-12-04T09:52:38;99520.91;;;2.41;98.73
43707;BME280;61348;53.392;-6.248;2023-12-04T09:55:05;99525.53;;;2.41;98.79
43707;BME280;61348;53.392;-6.248;2023-12-04T09:57:33;99525.06;;;2.39;98.52
43707;BME280;61348;53.392;-6.248;2023-12-04T10:00:03;99529.41;;;2.40;98.40
43707;BME280;61348;53.392;-6.248;2023-12-04T10:02:32;99538.09;;;2.42;98.77
43707;BME280;61348;53.392;-6.248;2023-12-04T10:05:01;99541.28;;;2.44;98.53
43707;BME280;61348;53.392;-6.248;2023-12-04T10:07:32;99553.66;;;2.41;98.58
43707;BME280;61348;53.392;-6.248;2023-12-04T10:10:00;99547.41;;;2.41;98.43
43707;BME280;61348;53.392;-6.248;2023-12-04T10:12:27;99553.66;;;2.41;98.89
43707;BME280;61348;53.392;-6.248;2023-12-04T10:15:09;99559.94;;;2.42;98.86
43707;BME280;61348;53.392;-6.248;2023-12-04T10:17:39;99555.28;;;2.42;98.68
43707;BME280;61348;53.392;-6.248;2023-12-04T10:20:12;99576.50;;;2.45;98.59
43707;BME280;61348;53.392;-6.248;2023-12-04T10:22:58;99569.41;;;2.44;98.46
43707;BME280;61348;53.392;-6.248;2023-12-04T10:25:28;99566.38;;;2.46;98.44
43707;BME280;61348;53.392;-6.248;2023-12-04T10:28:09;99567.97;;;2.47;98.50
43707;BME280;61348;53.392;-6.248;2023-12-04T10:30:37;99573.44;;;2.47;98.42
43707;BME280;61348;53.392;-6.248;2023-12-04T10:33:06;99566.38;;;2.46;98.78
43707;BME280;61348;53.392;-6.248;2023-12-04T10:35:36;99571.84;;;2.46;98.47
43707;BME280;61348;53.392;-6.248;2023-12-04T10:38:06;99576.50;;;2.45;98.79
43707;BME280;61348;53.392;-6.248;2023-12-04T10:40:36;99566.38;;;2.46;98.87
43707;BME280;61348;53.392;-6.248;2023-12-04T10:43:20;99558.03;;;2.51;98.61
43707;BME280;61348;53.392;-6.248;2023-12-04T10:45:49;99566.06;;;2.56;98.55
43707;BME280;61348;53.392;-6.248;2023-12-04T10:48:19;99568.47;;;2.58;98.82
43707;BME280;61348;53.392;-6.248;2023-12-04T10:50:48;99568.63;;;2.61;98.38
43707;BME280;61348;53.392;-6.248;2023-12-04T10:53:17;99568.00;;;2.64;98.40
43707;BME280;61348;53.392;-6.248;2023-12-04T10:55:45;99574.75;;;2.67;98.48
43707;BME280;61348;53.392;-6.248;2023-12-04T10:58:15;99576.03;;;2.69;98.59
43707;BME280;61348;53.392;-6.248;2023-12-04T11:00:48;99561.72;;;2.72;98.25
43707;BME280;61348;53.392;-6.248;2023-12-04T11:03:44;99579.06;;;2.76;98.14
43707;BME280;61348;53.392;-6.248;2023-12-04T11:06:16;99572.50;;;2.77;98.19
43707;BME280;61348;53.392;-6.248;2023-12-04T11:08:48;99571.84;;;2.80;98.13
43707;BME280;61348;53.392;-6.248;2023-12-04T11:11:27;99582.13;;;2.83;98.26
43707;BME280;61348;53.392;-6.248;2023-12-04T11:14:00;99577.63;;;2.87;98.55
43707;BME280;61348;53.392;-6.248;2023-12-04T11:16:48;99567.50;;;2.88;98.18
43707;BME280;61348;53.392;-6.248;2023-12-04T11:19:25;99566.88;;;2.91;98.14
43707;BME280;61348;53.392;-6.248;2023-12-04T11:21:58;99565.25;;;2.98;98.11
43707;BME280;61348;53.392;-6.248;2023-12-04T11:24:27;99565.06;;;3.03;98.17
43707;BME280;61348;53.392;-6.248;2023-12-04T11:26:56;99553.16;;;3.08;97.85
43707;BME280;61348;53.392;-6.248;2023-12-04T11:29:25;99574.38;;;3.11;98.15
43707;BME280;61348;53.392;-6.248;2023-12-04T11:31:53;99576.47;;;3.14;98.05
43707;BME280;61348;53.392;-6.248;2023-12-04T11:34:21;99576.63;;;3.18;97.63
43707;BME280;61348;53.392;-6.248;2023-12-04T11:36:48;99584.97;;;3.21;97.65
43707;BME280;61348;53.392;-6.248;2023-12-04T11:39:18;99572.59;;;3.24;98.27
43707;BME280;61348;53.392;-6.248;2023-12-04T11:41:47;99573.56;;;3.28;97.79
43707;BME280;61348;53.392;-6.248;2023-12-04T11:44:15;99567.44;;;3.31;97.87
43707;BME280;61348;53.392;-6.248;2023-12-04T11:47:03;99575.66;;;3.31;97.54
43707;BME280;61348;53.392;-6.248;2023-12-04T11:49:33;99580.44;;;3.34;97.51
43707;BME280;61348;53.392;-6.248;2023-12-04T11:52:03;99586.88;;;3.38;97.71
43707;BME280;61348;53.392;-6.248;2023-12-04T11:55:00;99578.03;;;3.41;97.59
43707;BME280;61348;53.392;-6.248;2023-12-04T11:57:38;99574.94;;;3.42;97.68
43707;BME280;61348;53.392;-6.248;2023-12-04T12:03:10;99571.56;;;3.45;97.53
43707;BME280;61348;53.392;-6.248;2023-12-04T12:05:49;99580.06;;;3.52;97.63
43707;BME280;61348;53.392;-6.248;2023-12-04T12:08:20;99575.22;;;3.58;97.72
43707;BME280;61348;53.392;-6.248;2023-12-04T12:10:50;99565.25;;;3.62;97.80
43707;BME280;61348;53.392;-6.248;2023-12-04T12:13:20;99570.72;;;3.62;97.37
43707;BME280;61348;53.392;-6.248;2023-12-04T12:15:48;99582.47;;;3.62;97.58
43707;BME280;61348;53.392;-6.248;2023-12-04T12:18:18;99573.13;;;3.63;97.95
43707;BME280;61348;53.392;-6.248;2023-12-04T12:20:47;99583.25;;;3.63;97.73
43707;BME280;61348;53.392;-6.248;2023-12-04T12:23:14;99584.88;;;3.64;97.84
43707;BME280;61348;53.392;-6.248;2023-12-04T12:25:41;99583.41;;;3.66;97.56
43707;BME280;61348;53.392;-6.248;2023-12-04T12:28:09;99591.28;;;3.68;97.64
43707;BME280;61348;53.392;-6.248;2023-12-04T12:30:37;99596.09;;;3.71;97.93
43707;BME280;61348;53.392;-6.248;2023-12-04T12:33:04;99601.56;;;3.71;97.54
43707;BME280;61348;53.392;-6.248;2023-12-04T12:35:32;99603.66;;;3.74;97.85
43707;BME280;61348;53.392;-6.248;2023-12-04T12:37:59;99607.38;;;3.78;97.74
43707;BME280;61348;53.392;-6.248;2023-12-04T12:40:27;99600.09;;;3.82;97.78
43707;BME280;61348;53.392;-6.248;2023-12-04T12:43:09;99600.72;;;3.88;97.79
43707;BME280;61348;53.392;-6.248;2023-12-04T12:45:43;99606.34;;;3.91;97.58
43707;BME280;61348;53.392;-6.248;2023-12-04T12:48:15;99605.69;;;3.94;97.44
43707;BME280;61348;53.392;-6.248;2023-12-04T12:50:44;99594.88;;;3.98;97.39
43707;BME280;61348;53.392;-6.248;2023-12-04T12:53:12;99604.34;;;4.00;97.17
43707;BME280;61348;53.392;-6.248;2023-12-04T12:55:42;99604.50;;;4.04;97.51
43707;BME280;61348;53.392;-6.248;2023-12-04T12:58:10;99598.03;;;4.08;97.25
43707;BME280;61348;53.392;-6.248;2023-12-04T13:00:39;99603.66;;;4.12;97.47
43707;BME280;61348;53.392;-6.248;2023-12-04T13:03:15;99594.13;;;4.18;97.67
43707;BME280;61348;53.392;-6.248;2023-12-04T13:05:43;99611.97;;;4.24;97.30
43707;BME280;61348;53.392;-6.248;2023-12-04T13:08:11;99607.25;;;4.33;97.70
43707;BME280;61348;53.392;-6.248;2023-12-04T13:10:40;99611.06;;;4.41;97.32